Time;durP1;ratioP1;P1;durP2;ratioP2;P2;SDS_P1;SDS_P2;PMS_P1;PMS_P2;Temp;Humidity;BMP_temperature;BMP_pressure;BME280_temperature;BME280_humidity;BME280_pressure;Samples;Min_cycle;Max_cycle;Signal;HPM_P1;HPM_P2
2022/08/01 07:06:07;;;;;;;8.32;6.72;;;;;;;;;;12951967;23;20013;-86
2022/08/01 07:11:08;;;;;;;6.82;6.00;;;;;;;;;;12919674;23;20012;-83
2022/08/01 07:16:09;;;;;;;6.35;5.28;;;;;;;;;;12911035;23;20011;-82
2022/08/01 07:21:10;;;;;;;5.68;5.10;;;;;;;;;;12908026;23;20011;-82
2022/08/01 07:26:13;;;;;;;10.10;8.18;;;;;;;;;;12935591;23;20004;-82
2022/08/01 07:31:14;;;;;;;5.50;5.00;;;;;;;;;;12908836;23;20000;-82
2022/08/01 07:36:15;;;;;;;6.38;5.70;;;;;;;;;;12907557;23;20019;-83
2022/08/01 07:41:16;;;;;;;9.57;8.65;;;;;;;;;;12909785;23;20443;-83
2022/08/01 07:46:17;;;;;;;6.75;6.05;;;;;;;;;;12909452;23;20004;-83
2022/08/01 07:51:18;;;;;;;8.95;8.05;;;;;;;;;;12911136;23;20004;-83
2022/08/01 07:56:20;;;;;;;13.13;11.77;;;;;;;;;;12911504;23;20008;-83
2022/08/01 08:01:21;;;;;;;9.07;8.18;;;;;;;;;;12910294;23;20432;-83
2022/08/01 08:06:25;;;;;;;6.10;5.50;;;;;;;;;;12909964;23;20014;-83
2022/08/01 08:11:39;;;;;;;7.03;5.65;;;;;;;;;;12919573;23;20016;-84
2022/08/01 08:16:59;;;;;;;4.90;4.40;;;;;;;;;;12949049;23;20391;-84
2022/08/01 08:22:19;;;;;;;;;;;;;;;;;;;;;
2022/08/01 08:33:08;;;;;;;2.97;2.40;;;;;;;;;;12947633;22;20456;-84
2022/08/01 08:38:09;;;;;;;3.85;2.97;;;;;;;;;;12914822;23;20004;-84
2022/08/01 08:43:10;;;;;;;2.95;2.33;;;;;;;;;;12915129;23;20008;-84
2022/08/01 08:48:13;;;;;;;2.80;2.20;;;;;;;;;;12915273;23;20467;-84
2022/08/01 08:53:37;;;;;;;2.38;1.80;;;;;;;;;;12915172;23;20031;-84
2022/08/01 08:58:38;;;;;;;3.53;2.00;;;;;;;;;;12940281;23;20080;-84
2022/08/01 09:03:46;;;;;;;2.83;1.80;;;;;;;;;;12916660;23;20011;-83
2022/08/01 09:08:47;;;;;;;2.00;1.70;;;;;;;;;;12915493;23;20008;-84
2022/08/01 09:14:07;;;;;;;3.55;2.33;;;;;;;;;;12914180;23;20011;-84
2022/08/01 09:19:22;;;;;;;3.60;2.47;;;;;;;;;;12912344;23;20015;-84
2022/08/01 09:24:24;;;;;;;5.88;2.13;;;;;;;;;;12912248;23;20031;-84
2022/08/01 09:29:27;;;;;;;2.28;2.08;;;;;;;;;;12912225;23;20004;-84
2022/08/01 09:34:30;;;;;;;4.85;3.58;;;;;;;;;;12912168;23;20016;-83
2022/08/01 09:39:37;;;;;;;2.90;2.30;;;;;;;;;;12924450;22;20011;-83
2022/08/01 09:44:43;;;;;;;3.25;1.60;;;;;;;;;;12933930;23;20039;-84
2022/08/01 09:49:56;;;;;;;7.32;4.57;;;;;;;;;;12907870;23;20019;-83
2022/08/01 09:55:17;;;;;;;2.97;2.05;;;;;;;;;;12906492;23;20004;-84
2022/08/01 10:00:19;;;;;;;2.78;1.48;;;;;;;;;;12898656;23;20015;-83
2022/08/01 10:05:30;;;;;;;3.40;1.30;;;;;;;;;;12908587;23;20004;-83
2022/08/01 10:10:34;;;;;;;3.15;1.17;;;;;;;;;;12907730;23;20011;-83
2022/08/01 10:15:36;;;;;;;1.23;0.80;;;;;;;;;;12908523;23;20008;-84
2022/08/01 10:20:37;;;;;;;1.75;1.13;;;;;;;;;;12908529;23;20003;-84
2022/08/01 10:25:41;;;;;;;1.75;0.70;;;;;;;;;;12914110;23;20052;-82
2022/08/01 10:30:42;;;;;;;0.52;0.50;;;;;;;;;;12927022;23;19996;-83
2022/08/01 10:35:47;;;;;;;0.57;0.38;;;;;;;;;;12906887;23;20448;-84
2022/08/01 10:40:57;;;;;;;2.50;0.70;;;;;;;;;;12983800;22;20378;-80
2022/08/01 10:45:58;;;;;;;1.75;0.60;;;;;;;;;;12974634;22;20075;-80
2022/08/01 10:51:02;;;;;;;1.60;1.13;;;;;;;;;;13002736;22;20322;-80
2022/08/01 10:56:05;;;;;;;2.45;0.80;;;;;;;;;;12977356;22;20037;-79
2022/08/01 11:01:15;;;;;;;0.95;0.50;;;;;;;;;;12975547;22;20066;-79
2022/08/01 11:06:23;;;;;;;1.30;0.50;;;;;;;;;;12975151;22;20018;-81
2022/08/01 11:11:25;;;;;;;1.77;1.60;;;;;;;;;;12985436;22;20003;-81
2022/08/01 11:16:26;;;;;;;1.63;0.85;;;;;;;;;;12988832;22;19999;-81
2022/08/01 11:21:46;;;;;;;1.98;1.50;;;;;;;;;;12987049;22;20042;-80
2022/08/01 11:27:16;;;;;;;0.75;0.63;;;;;;;;;;12981985;22;20435;-80
2022/08/01 11:32:27;;;;;;;0.67;0.63;;;;;;;;;;13009497;22;19996;-81
2022/08/01 11:37:29;;;;;;;1.48;0.70;;;;;;;;;;12978656;22;20238;-81
2022/08/01 11:42:30;;;;;;;0.88;0.60;;;;;;;;;;12979972;22;20027;-80
2022/08/01 11:47:44;;;;;;;1.17;0.90;;;;;;;;;;12978012;22;20378;-80
2022/08/01 11:52:45;;;;;;;1.05;0.68;;;;;;;;;;12984499;22;20065;-80
2022/08/01 11:57:47;;;;;;;0.60;0.60;;;;;;;;;;12978664;22;20004;-80
2022/08/01 12:02:56;;;;;;;0.50;0.50;;;;;;;;;;12976347;22;20034;-80
2022/08/01 12:07:58;;;;;;;2.42;0.80;;;;;;;;;;12975962;22;20011;-80
2022/08/01 12:13:04;;;;;;;2.25;0.70;;;;;;;;;;12986528;22;20003;-80
2022/08/01 12:18:06;;;;;;;1.90;0.80;;;;;;;;;;13043299;22;19992;-81
2022/08/01 12:23:08;;;;;;;2.67;0.60;;;;;;;;;;13011577;22;19996;-79
2022/08/01 12:28:10;;;;;;;1.10;0.60;;;;;;;;;;13024884;22;20053;-81
2022/08/01 12:33:17;;;;;;;1.15;0.60;;;;;;;;;;12975004;22;20011;-81
2022/08/01 12:38:21;;;;;;;1.35;0.70;;;;;;;;;;12973791;22;20007;-81
2022/08/01 12:43:26;;;;;;;1.10;0.80;;;;;;;;;;12974447;22;20003;-79
2022/08/01 12:48:28;;;;;;;1.95;0.80;;;;;;;;;;12973925;22;20014;-82
2022/08/01 12:53:29;;;;;;;2.20;1.00;;;;;;;;;;12976121;22;20032;-82
2022/08/01 12:58:31;;;;;;;1.77;1.20;;;;;;;;;;12979222;22;20042;-82
2022/08/01 13:03:33;;;;;;;1.20;1.10;;;;;;;;;;12975828;22;20023;-81
2022/08/01 13:08:37;;;;;;;1.10;1.00;;;;;;;;;;12974199;22;20091;-80
2022/08/01 13:13:40;;;;;;;2.45;1.67;;;;;;;;;;12972227;22;20038;-80
2022/08/01 13:18:41;;;;;;;1.67;1.20;;;;;;;;;;12972097;22;20034;-79
2022/08/01 13:24:01;;;;;;;1.80;0.90;;;;;;;;;;12970027;22;20015;-80
2022/08/01 13:29:07;;;;;;;1.55;1.10;;;;;;;;;;12973388;22;20008;-81
2022/08/01 13:34:08;;;;;;;1.30;1.00;;;;;;;;;;12970969;22;20105;-81
2022/08/01 13:44:30;;;;;;;1.88;1.60;;;;;;;;;;12998917;22;20012;-81
2022/08/01 13:49:34;;;;;;;2.50;1.50;;;;;;;;;;12968635;22;20083;-81
2022/08/01 13:54:36;;;;;;;2.47;1.40;;;;;;;;;;12997349;22;20075;-81
2022/08/01 13:59:37;;;;;;;1.45;1.30;;;;;;;;;;12977366;22;20458;-80
2022/08/01 14:04:38;;;;;;;3.70;1.67;;;;;;;;;;12976660;22;20491;-81
2022/08/01 14:09:39;;;;;;;3.53;1.88;;;;;;;;;;12978388;22;20004;-80
2022/08/01 14:14:40;;;;;;;2.38;1.50;;;;;;;;;;12977961;22;20004;-80
2022/08/01 14:19:41;;;;;;;2.15;1.38;;;;;;;;;;12984367;22;20015;-79
2022/08/01 14:24:46;;;;;;;3.08;1.52;;;;;;;;;;12990791;22;20027;-80
2022/08/01 14:30:05;;;;;;;2.78;1.50;;;;;;;;;;13012053;22;20034;-81
2022/08/01 14:35:07;;;;;;;3.53;1.50;;;;;;;;;;12994953;22;20004;-82
2022/08/01 14:40:11;;;;;;;5.13;2.42;;;;;;;;;;12999219;22;20034;-81
2022/08/01 14:45:13;;;;;;;3.53;2.33;;;;;;;;;;13007562;22;20055;-80
2022/08/01 14:50:18;;;;;;;2.80;2.00;;;;;;;;;;13009877;22;19999;-80
2022/08/01 14:55:23;;;;;;;3.97;1.95;;;;;;;;;;13010873;22;20000;-80
2022/08/01 15:00:24;;;;;;;2.72;1.65;;;;;;;;;;12989134;22;20370;-82
2022/08/01 15:05:32;;;;;;;3.55;1.60;;;;;;;;;;12974513;22;20004;-82
2022/08/01 15:10:46;;;;;;;3.67;1.70;;;;;;;;;;12976091;22;20446;-82
2022/08/01 15:15:47;;;;;;;2.35;1.50;;;;;;;;;;12976517;22;20467;-82
2022/08/01 15:20:51;;;;;;;2.15;1.33;;;;;;;;;;12975519;22;20003;-82
2022/08/01 15:25:52;;;;;;;3.55;1.40;;;;;;;;;;12975126;22;20010;-82
2022/08/01 15:31:00;;;;;;;3.50;1.60;;;;;;;;;;13001557;22;20029;-82
2022/08/01 15:36:28;;;;;;;2.90;1.52;;;;;;;;;;13000449;22;20067;-82
2022/08/01 15:42:01;;;;;;;3.22;1.77;;;;;;;;;;13002342;22;20344;-83
2022/08/01 15:47:03;;;;;;;3.35;1.38;;;;;;;;;;12974262;22;20447;-81
2022/08/01 15:52:04;;;;;;;2.42;1.67;;;;;;;;;;12973887;22;20312;-81
2022/08/01 15:57:05;;;;;;;3.45;1.70;;;;;;;;;;12977173;22;20386;-82
2022/08/01 16:02:06;;;;;;;4.25;2.35;;;;;;;;;;12978216;22;20061;-80
2022/08/01 16:07:07;;;;;;;2.30;1.38;;;;;;;;;;12974542;22;20428;-81
2022/08/01 16:12:09;;;;;;;3.65;1.60;;;;;;;;;;13000135;22;20002;-82
2022/08/01 16:17:10;;;;;;;8.23;7.43;;;;;;;;;;12974298;22;20010;-81
2022/08/01 16:22:11;;;;;;;4.72;3.00;;;;;;;;;;12969296;22;20008;-81
2022/08/01 16:27:13;;;;;;;2.10;1.80;;;;;;;;;;12968564;22;20038;-79
2022/08/01 16:32:14;;;;;;;2.38;1.40;;;;;;;;;;12969611;22;20034;-80
2022/08/01 16:37:15;;;;;;;2.63;1.33;;;;;;;;;;12968523;22;20442;-81
2022/08/01 17:34:17;;;;;;;2.92;1.40;;;;;;;;;;12839061;22;20024;-87
